createdAt,value
2023-03-06T00:00:48.083Z,448.00
2023-03-06T00:04:48.234Z,451.00
2023-03-06T00:08:48.372Z,448.00
2023-03-06T00:12:48.493Z,444.00
2023-03-06T00:16:48.569Z,443.00
2023-03-06T00:20:48.670Z,446.00
2023-03-06T00:24:48.847Z,447.00
2023-03-06T00:28:48.977Z,444.00
2023-03-06T00:32:49.182Z,440.00
2023-03-06T00:36:49.196Z,447.00
2023-03-06T00:40:49.336Z,448.00
2023-03-06T00:44:49.480Z,442.00
2023-03-06T00:48:49.613Z,440.00
2023-03-06T00:52:49.737Z,442.00
2023-03-06T00:56:49.930Z,447.00
2023-03-06T01:00:50.108Z,443.00
2023-03-06T01:04:50.207Z,438.00
2023-03-06T01:08:50.320Z,440.00
2023-03-06T01:12:50.448Z,441.00
2023-03-06T01:16:50.638Z,436.00
2023-03-06T01:20:50.733Z,435.00
2023-03-06T01:24:50.866Z,443.00
2023-03-06T01:28:51.034Z,438.00
2023-03-06T01:32:51.167Z,441.00
2023-03-06T01:36:51.339Z,446.00
2023-03-06T01:40:51.461Z,442.00
2023-03-06T01:44:51.618Z,439.00
2023-03-06T01:48:51.792Z,445.00
2023-03-06T01:52:51.942Z,444.00
2023-03-06T01:56:52.054Z,442.00
2023-03-06T02:00:52.267Z,440.00
2023-03-06T02:04:52.432Z,442.00
2023-03-06T02:08:52.616Z,441.00
2023-03-06T02:12:52.783Z,441.00
2023-03-06T02:16:53.052Z,434.00
2023-03-06T02:20:53.092Z,435.00
2023-03-06T02:24:53.290Z,433.00
2023-03-06T02:28:53.488Z,431.00
2023-03-06T02:32:53.675Z,436.00
2023-03-06T02:36:53.877Z,434.00
2023-03-06T02:40:54.044Z,439.00
2023-03-06T02:44:54.234Z,441.00
2023-03-06T02:48:54.403Z,441.00
2023-03-06T02:52:54.638Z,442.00
2023-03-06T02:56:54.848Z,443.00
2023-03-06T03:00:55.062Z,440.00
2023-03-06T03:04:55.340Z,442.00
2023-03-06T03:08:55.501Z,436.00
2023-03-06T03:12:55.716Z,441.00
2023-03-06T03:16:55.912Z,439.00
2023-03-06T03:20:56.095Z,440.00
2023-03-06T03:24:56.374Z,436.00
2023-03-06T03:28:56.527Z,437.00
2023-03-06T03:32:56.805Z,438.00
2023-03-06T03:36:56.957Z,438.00
2023-03-06T03:40:57.199Z,435.00
2023-03-06T03:44:57.393Z,435.00
2023-03-06T03:48:57.592Z,442.00
2023-03-06T03:52:57.857Z,439.00
2023-03-06T03:56:58.052Z,434.00
2023-03-06T04:00:58.249Z,436.00
2023-03-06T04:04:58.556Z,438.00
2023-03-06T04:08:58.702Z,437.00
2023-03-06T04:12:58.915Z,442.00
2023-03-06T04:16:59.110Z,437.00
2023-03-06T04:20:59.402Z,436.00
2023-03-06T04:24:59.621Z,437.00
2023-03-06T04:28:59.845Z,441.00
2023-03-06T04:33:00.035Z,440.00
2023-03-06T04:37:00.262Z,440.00
2023-03-06T04:41:00.493Z,442.00
2023-03-06T04:45:00.750Z,439.00
2023-03-06T04:49:00.954Z,437.00
2023-03-06T04:53:01.189Z,437.00
2023-03-06T04:57:01.478Z,438.00
2023-03-06T05:01:01.730Z,438.00
2023-03-06T05:05:01.947Z,435.00
2023-03-06T05:09:02.220Z,440.00
2023-03-06T05:13:02.440Z,441.00
2023-03-06T05:17:02.705Z,441.00
2023-03-06T05:21:02.931Z,434.00
2023-03-06T05:25:03.199Z,431.00
2023-03-06T05:29:03.475Z,426.00
2023-03-06T05:33:03.690Z,431.00
2023-03-06T05:37:03.940Z,431.00
2023-03-06T05:41:04.174Z,434.00
2023-03-06T05:45:04.444Z,439.00
2023-03-06T05:49:04.732Z,440.00
2023-03-06T05:53:05.006Z,438.00
2023-03-06T05:57:05.247Z,435.00
2023-03-06T06:01:05.497Z,436.00
2023-03-06T06:05:05.785Z,436.00
2023-03-06T06:09:06.060Z,435.00
2023-03-06T06:13:06.250Z,438.00
2023-03-06T06:17:06.542Z,437.00
2023-03-06T06:21:06.798Z,441.00
2023-03-06T06:25:07.075Z,441.00
2023-03-06T06:29:07.288Z,443.00
2023-03-06T06:33:07.544Z,435.00
2023-03-06T06:37:07.828Z,486.00
2023-03-06T06:41:39.324Z,510.00
2023-03-06T06:45:09.076Z,571.00
2023-03-06T06:49:08.364Z,643.00
2023-03-06T06:53:08.852Z,731.00
2023-03-06T06:57:08.823Z,892.00
2023-03-06T07:01:08.698Z,975.00
2023-03-06T07:05:08.859Z,1091.00
2023-03-06T07:09:08.831Z,1194.00
2023-03-06T07:13:08.875Z,1269.00
2023-03-06T07:17:08.798Z,1348.00
2023-03-06T07:21:08.823Z,1459.00
2023-03-06T07:25:08.934Z,1492.00
2023-03-06T07:29:09.390Z,1569.00
2023-03-06T07:33:09.053Z,1662.00
2023-03-06T07:37:09.388Z,1762.00
2023-03-06T07:41:08.946Z,1833.00
2023-03-06T07:45:09.379Z,1903.00
2023-03-06T07:49:08.796Z,1966.00
2023-03-06T07:53:10.773Z,1792.00
2023-03-06T07:57:08.869Z,1809.00
2023-03-06T08:01:08.749Z,1765.00
2023-03-06T08:05:08.970Z,1771.00
2023-03-06T08:09:08.928Z,1754.00
2023-03-06T08:13:09.399Z,1734.00
2023-03-06T08:17:08.968Z,1713.00
2023-03-06T08:21:08.986Z,1682.00
2023-03-06T08:25:09.430Z,1724.00
2023-03-06T08:29:08.954Z,1660.00
2023-03-06T08:33:08.953Z,1636.00
2023-03-06T08:37:08.999Z,1606.00
2023-03-06T08:41:09.445Z,1607.00
2023-03-06T08:45:09.400Z,1686.00
2023-03-06T08:49:09.405Z,1698.00
2023-03-06T08:53:09.132Z,1802.00
2023-03-06T08:57:09.317Z,1838.00
2023-03-06T09:01:09.893Z,1886.00
2023-03-06T09:05:09.429Z,1923.00
2023-03-06T09:09:09.399Z,1949.00
2023-03-06T09:13:09.482Z,1948.00
2023-03-06T09:17:09.345Z,2001.00
2023-03-06T09:21:09.328Z,2030.00
2023-03-06T09:25:09.331Z,2042.00
2023-03-06T09:29:09.335Z,2065.00
2023-03-06T09:33:09.321Z,2082.00
2023-03-06T09:37:09.436Z,2055.00
2023-03-06T09:41:09.255Z,2080.00
2023-03-06T09:45:09.605Z,2122.00
2023-03-06T09:49:09.421Z,2213.00
2023-03-06T09:53:09.418Z,1488.00
2023-03-06T09:57:09.427Z,1554.00
2023-03-06T10:01:09.930Z,1367.00
2023-03-06T10:05:09.609Z,1225.00
2023-03-06T10:09:09.929Z,1179.00
2023-03-06T10:13:09.631Z,1070.00
2023-03-06T10:17:09.642Z,1212.00
2023-03-06T10:21:19.128Z,982.00
2023-03-06T10:25:10.700Z,973.00
2023-03-06T10:29:09.952Z,914.00
2023-03-06T10:33:09.628Z,844.00
2023-03-06T10:37:09.930Z,873.00
2023-03-06T10:41:09.941Z,843.00
2023-03-06T10:45:10.490Z,675.00
2023-03-06T10:49:10.428Z,608.00
2023-03-06T10:53:10.328Z,582.00
2023-03-06T10:57:10.334Z,552.00
2023-03-06T11:01:10.969Z,538.00
2023-03-06T11:05:10.395Z,527.00
2023-03-06T11:09:10.439Z,513.00
2023-03-06T11:13:10.429Z,503.00
2023-03-06T11:17:10.457Z,497.00
2023-03-06T11:21:10.493Z,486.00
2023-03-06T11:25:10.474Z,481.00
2023-03-06T11:29:10.551Z,475.00
2023-03-06T11:33:10.488Z,468.00
2023-03-06T11:37:10.968Z,461.00
2023-03-06T11:41:10.504Z,574.00
2023-03-06T11:45:10.953Z,716.00
2023-03-06T11:49:10.600Z,773.00
2023-03-06T11:53:10.996Z,869.00
2023-03-06T11:57:10.841Z,971.00
2023-03-06T12:01:10.828Z,1059.00
2023-03-06T12:05:10.880Z,1175.00
2023-03-06T12:09:10.843Z,1237.00
2023-03-06T12:13:11.003Z,1348.00
2023-03-06T12:17:11.464Z,1443.00
2023-03-06T12:21:11.145Z,1526.00
2023-03-06T12:25:11.305Z,1580.00
2023-03-06T12:29:11.617Z,1688.00
2023-03-06T12:33:11.176Z,1721.00
2023-03-06T12:37:11.489Z,1726.00
2023-03-06T12:41:11.509Z,1703.00
2023-03-06T12:45:11.011Z,1653.00
2023-03-06T12:49:12.391Z,1658.00
2023-03-06T12:53:10.903Z,1687.00
2023-03-06T12:57:10.883Z,1688.00
2023-03-06T13:01:10.824Z,1688.00
2023-03-06T13:05:10.767Z,1703.00
2023-03-06T13:09:10.716Z,1708.00
2023-03-06T13:13:10.664Z,1738.00
2023-03-06T13:17:10.638Z,1731.00
2023-03-06T13:21:10.572Z,1709.00
2023-03-06T13:25:11.004Z,1696.00
2023-03-06T13:29:10.428Z,1682.00
2023-03-06T13:33:10.393Z,1684.00
2023-03-06T13:37:10.497Z,1669.00
2023-03-06T13:41:10.227Z,1646.00
2023-03-06T13:45:10.207Z,1608.00
2023-03-06T13:49:10.141Z,1596.00
2023-03-06T13:53:10.101Z,1563.00
2023-03-06T13:57:10.151Z,1422.00
2023-03-06T14:01:10.267Z,1310.00
2023-03-06T14:05:10.220Z,1013.00
2023-03-06T14:09:10.253Z,801.00
2023-03-06T14:13:10.404Z,725.00
2023-03-06T14:17:10.515Z,745.00
2023-03-06T14:21:10.607Z,760.00
2023-03-06T14:25:10.555Z,773.00
2023-03-06T14:29:10.506Z,774.00
2023-03-06T14:33:10.434Z,775.00
2023-03-06T14:37:10.353Z,779.00
2023-03-06T14:41:11.779Z,779.00
2023-03-06T14:45:10.234Z,774.00
2023-03-06T14:49:10.325Z,779.00
2023-03-06T14:53:10.146Z,778.00
2023-03-06T14:57:10.056Z,775.00
2023-03-06T15:01:10.000Z,769.00
2023-03-06T15:05:10.057Z,773.00
2023-03-06T15:09:09.881Z,771.00
2023-03-06T15:13:09.833Z,774.00
2023-03-06T15:17:10.045Z,766.00
2023-03-06T15:21:09.766Z,765.00
2023-03-06T15:25:10.061Z,762.00
2023-03-06T15:29:10.344Z,761.00
2023-03-06T15:33:09.518Z,757.00
2023-03-06T15:37:09.486Z,763.00
2023-03-06T15:41:09.381Z,765.00
2023-03-06T15:45:09.339Z,758.00
2023-03-06T15:49:09.255Z,758.00
2023-03-06T15:53:09.227Z,753.00
2023-03-06T15:57:09.163Z,753.00
2023-03-06T16:01:09.100Z,746.00
2023-03-06T16:05:08.984Z,734.00
2023-03-06T16:09:08.955Z,735.00
2023-03-06T16:13:08.855Z,734.00
2023-03-06T16:17:08.856Z,734.00
2023-03-06T16:21:08.858Z,734.00
2023-03-06T16:25:08.937Z,733.00
2023-03-06T16:29:09.043Z,733.00
2023-03-06T16:33:09.125Z,723.00
2023-03-06T16:37:09.207Z,721.00
2023-03-06T16:41:09.283Z,718.00
2023-03-06T16:45:09.391Z,713.00
2023-03-06T16:49:09.436Z,713.00
2023-03-06T16:53:09.537Z,710.00
2023-03-06T16:57:09.555Z,706.00
2023-03-06T17:01:10.089Z,702.00
2023-03-06T17:05:09.649Z,701.00
2023-03-06T17:09:09.675Z,696.00
2023-03-06T17:13:09.738Z,698.00
2023-03-06T17:17:09.864Z,700.00
2023-03-06T17:21:09.926Z,693.00
2023-03-06T17:25:10.038Z,695.00
2023-03-06T17:29:10.085Z,692.00
2023-03-06T17:33:10.160Z,687.00
2023-03-06T17:37:10.298Z,682.00
2023-03-06T17:41:10.322Z,682.00
2023-03-06T17:45:10.425Z,671.00
2023-03-06T17:49:10.537Z,664.00
2023-03-06T17:53:10.607Z,658.00
2023-03-06T17:57:10.780Z,654.00
2023-03-06T18:01:10.848Z,656.00
2023-03-06T18:05:10.991Z,658.00
2023-03-06T18:09:11.208Z,657.00
2023-03-06T18:13:11.183Z,651.00
2023-03-06T18:17:11.316Z,649.00
2023-03-06T18:21:11.415Z,651.00
2023-03-06T18:25:11.524Z,655.00
2023-03-06T18:29:11.659Z,655.00
2023-03-06T18:33:11.803Z,654.00
2023-03-06T18:37:11.883Z,652.00
2023-03-06T18:41:12.041Z,649.00
2023-03-06T18:45:12.131Z,643.00
2023-03-06T18:49:12.241Z,649.00
2023-03-06T18:53:12.405Z,645.00
2023-03-06T18:57:12.532Z,643.00
2023-03-06T19:01:12.755Z,637.00
2023-03-06T19:05:12.855Z,640.00
2023-03-06T19:09:12.987Z,638.00
2023-03-06T19:13:13.136Z,633.00
2023-03-06T19:17:13.287Z,634.00
2023-03-06T19:21:13.416Z,635.00
2023-03-06T19:25:13.585Z,632.00
2023-03-06T19:29:13.742Z,631.00
2023-03-06T19:33:13.923Z,624.00
2023-03-06T19:37:14.093Z,625.00
2023-03-06T19:41:14.281Z,626.00
2023-03-06T19:45:14.502Z,629.00
2023-03-06T19:49:14.642Z,622.00
2023-03-06T19:53:14.817Z,618.00
2023-03-06T19:57:15.031Z,622.00
2023-03-06T20:01:15.216Z,617.00
2023-03-06T20:05:15.389Z,619.00
2023-03-06T20:09:15.543Z,614.00
2023-03-06T20:13:15.700Z,613.00
2023-03-06T20:17:15.904Z,611.00
2023-03-06T20:21:16.092Z,610.00
2023-03-06T20:25:16.280Z,608.00
2023-03-06T20:29:16.430Z,609.00
2023-03-06T20:33:16.636Z,607.00
2023-03-06T20:37:16.835Z,602.00
2023-03-06T20:41:17.028Z,605.00
2023-03-06T20:45:17.219Z,598.00
2023-03-06T20:49:17.412Z,598.00
2023-03-06T20:53:17.608Z,599.00
2023-03-06T20:57:17.813Z,596.00
2023-03-06T21:01:18.029Z,593.00
2023-03-06T21:05:18.193Z,591.00
2023-03-06T21:09:18.403Z,589.00
2023-03-06T21:13:18.632Z,590.00
2023-03-06T21:17:18.782Z,589.00
2023-03-06T21:21:18.998Z,584.00
2023-03-06T21:25:19.206Z,583.00
2023-03-06T21:29:19.421Z,585.00
2023-03-06T21:33:19.625Z,580.00
2023-03-06T21:37:19.813Z,584.00
2023-03-06T21:41:20.059Z,591.00
2023-03-06T21:45:20.321Z,595.00
2023-03-06T21:49:20.584Z,589.00
2023-03-06T21:53:20.858Z,580.00
2023-03-06T21:57:20.880Z,577.00
2023-03-06T22:01:20.965Z,579.00
2023-03-06T22:05:20.939Z,580.00
2023-03-06T22:09:20.971Z,577.00
2023-03-06T22:13:20.997Z,577.00
2023-03-06T22:17:21.023Z,573.00
2023-03-06T22:21:21.047Z,574.00
2023-03-06T22:25:21.031Z,580.00
2023-03-06T22:29:21.070Z,578.00
2023-03-06T22:33:21.089Z,578.00
2023-03-06T22:37:21.119Z,579.00
2023-03-06T22:41:21.182Z,574.00
2023-03-06T22:45:21.448Z,572.00
2023-03-06T22:49:21.709Z,573.00
2023-03-06T22:53:21.919Z,571.00
2023-03-06T22:57:22.174Z,571.00
2023-03-06T23:01:22.509Z,575.00
2023-03-06T23:05:22.682Z,571.00
2023-03-06T23:09:22.904Z,564.00
2023-03-06T23:13:23.130Z,568.00
2023-03-06T23:17:23.397Z,565.00
2023-03-06T23:21:23.648Z,558.00
2023-03-06T23:25:23.914Z,559.00
2023-03-06T23:29:24.143Z,562.00
2023-03-06T23:33:24.409Z,559.00
2023-03-06T23:37:24.673Z,555.00
2023-03-06T23:41:24.919Z,556.00
2023-03-06T23:45:25.136Z,556.00
2023-03-06T23:49:25.408Z,552.00
2023-03-06T23:53:25.655Z,554.00
2023-03-06T23:57:25.929Z,552.00
